Terminal Aerodrome Forecast
Issued by NWS

Home | Current Version | Previous Version | Text Only | Print | Product List | Glossary On
Versions: 1 2 3 4 5 6 7 8 9 10 11 12 13 14 15 16 17 18 19 20 21 22 23 24 25 26 27 28 29 30 31 32 33 34
259
FTUS44 KOHX 241720
TAFCKV
TAF
KCKV 241720Z 2418/2518 21012G25KT P6SM VCSH BKN025
     FM242100 20015G25KT P6SM VCTS BKN040CB
     FM250300 23015G28KT 2SM TSRA OVC015CB
     FM250800 29012G22KT P6SM BKN050
     FM251200 31009KT P6SM SCT050=

USA.gov is the U.S. government's official web portal to all federal, state and local government web resources and services.